Terminal Aerodrome Forecast
Issued by NWS North Platte, NE

Current Version | Previous Version | Text Only | Print | Product List | Glossary On
Versions: 1 2 3 4 5 6 7 8 9 10 11 12
000
FTUS43 KLBF 221700
TAFVTN
TAF
KVTN 221722Z 2218/2318 VRB06KT P6SM BKN150
     FM230300 07007KT 3SM TSRA OVC050CB
      TEMPO 2304/2307 VRB35KT 1SM +TSRA OVC030CB
     FM230900 VRB06KT 3SM -RA BR OVC010
     FM231600 15010KT P6SM OVC040=

USA.gov is the U.S. government's official web portal to all federal, state and local government web resources and services.